Time;durP1;ratioP1;P1;durP2;ratioP2;P2;SDS_P1;SDS_P2;PMS_P1;PMS_P2;Temp;Humidity;BMP_temperature;BMP_pressure;BME280_temperature;BME280_humidity;BME280_pressure;Samples;Min_cycle;Max_cycle;Signal;HPM_P1;HPM_P2
2023/03/25 03:07:49;;;;;;;;;;;;;;;;;;;;;
2023/03/25 04:16:31;;;;;;;;;;;10.10;99.90;;;;;;6120375;22;20227;-83
2023/03/25 04:19:40;;;;;;;;;;;10.10;99.90;;;;;;6120578;22;20072;-83
2023/03/25 04:31:54;;;;;;;;;;;10.20;99.90;;;;;;6120975;23;20348;-83
2023/03/25 04:34:38;;;;;;;;;;;10.00;99.90;;;;;;6226718;23;20222;-83
2023/03/25 04:37:17;;;;;;;;;;;10.10;99.90;;;;;;6121568;23;19905;-83
2023/03/25 04:40:12;;;;;;;;;;;10.00;99.90;;;;;;6223451;23;20315;-84
2023/03/25 04:43:13;;;;;;;;;;;;;;;;;;;;;
2023/03/25 04:45:58;;;;;;;;;;;10.10;99.90;;;;;;6121026;23;20286;-83
2023/03/25 04:48:47;;;;;;;;;;;10.20;99.90;;;;;;6220958;23;19927;-83
2023/03/25 04:51:35;;;;;;;;;;;10.10;99.90;;;;;;6224269;22;19909;-83
2023/03/25 04:54:09;;;;;;;;;;;10.10;99.90;;;;;;6221894;23;20349;-83
2023/03/25 04:56:52;;;;;;;;;;;10.00;99.90;;;;;;6123010;23;19905;-84
2023/03/25 04:59:22;;;;;;;;;;;10.10;99.90;;;;;;6224796;23;19944;-83
2023/03/25 05:02:03;;;;;;;;;;;10.10;99.90;;;;;;6187217;22;20285;-84
2023/03/25 05:04:46;;;;;;;;;;;10.20;99.90;;;;;;6250025;22;19909;-84
2023/03/25 05:07:54;;;;;;;;;;;;;;;;;;;;;
2023/03/25 05:10:28;;;;;;;;;;;10.20;99.90;;;;;;6133620;22;19988;-84
2023/03/25 05:13:04;;;;;;;;;;;10.20;99.90;;;;;;6224719;23;19975;-83
2023/03/25 05:15:42;;;;;;;;;;;10.30;99.90;;;;;;6122668;23;20289;-84
2023/03/25 05:18:14;;;;;;;;;;;10.20;99.90;;;;;;6224846;23;19923;-84
2023/03/25 05:20:45;;;;;;;;;;;10.20;99.90;;;;;;6224532;22;19909;-84
2023/03/25 05:23:19;;;;;;;;;;;10.30;99.90;;;;;;6224373;23;19987;-83
2023/03/25 05:25:55;;;;;;;;;;;10.30;99.90;;;;;;6122412;23;20004;-83
2023/03/25 05:28:32;;;;;;;;;;;10.30;99.90;;;;;;6224296;23;20292;-84
2023/03/25 05:31:07;;;;;;;;;;;10.30;99.90;;;;;;6122335;23;20369;-83
2023/03/25 05:34:05;;;;;;;;;;;10.30;99.90;;;;;;6226438;23;19932;-85
2023/03/25 05:36:42;;;;;;;;;;;10.10;99.90;;;;;;6144771;22;20259;-83
2023/03/25 05:39:13;;;;;;;;;;;10.00;99.90;;;;;;6139733;23;19905;-85
2023/03/25 05:44:33;;;;;;;;;;;10.00;99.90;;;;;;6141812;23;19909;-85
2023/03/25 05:47:00;;;;;;;;;;;9.90;99.90;;;;;;6231221;23;19905;-85
2023/03/25 05:49:37;;;;;;;;;;;10.10;99.90;;;;;;6231878;23;19911;-85
2023/03/25 05:52:25;;;;;;;;;;;10.10;99.90;;;;;;6231183;22;19905;-85
2023/03/25 05:54:56;;;;;;;;;;;10.10;99.90;;;;;;6233341;23;20235;-84
2023/03/25 05:57:32;;;;;;;;;;;10.10;99.90;;;;;;6231660;23;19971;-85
2023/03/25 06:00:09;;;;;;;;;;;10.10;99.90;;;;;;6229432;23;19905;-84
2023/03/25 06:02:47;;;;;;;;;;;10.10;99.90;;;;;;6231057;23;19928;-84
2023/03/25 06:05:15;;;;;;;;;;;10.20;99.90;;;;;;6230641;23;19920;-84
2023/03/25 06:07:46;;;;;;;;;;;10.20;99.90;;;;;;6128840;23;19951;-84
2023/03/25 06:13:50;;;;;;;;;;;10.20;99.90;;;;;;6129677;23;19905;-85
2023/03/25 08:05:44;;;;;;;;;;;10.40;99.90;;;;;;6128497;22;19921;-84
2023/03/25 08:17:59;;;;;;;;;;;10.30;99.90;;;;;;6127381;23;19912;-83
2023/03/25 08:23:53;;;;;;;;;;;10.60;99.90;;;;;;6061691;23;19928;-84
2023/03/25 08:26:32;;;;;;;;;;;10.70;99.90;;;;;;6062637;23;19914;-83
2023/03/25 08:29:33;;;;;;;;;;;10.80;99.90;;;;;;6037690;23;20332;-84
2023/03/25 08:32:04;;;;;;;;;;;10.90;99.90;;;;;;6061749;23;19956;-83
2023/03/25 08:34:38;;;;;;;;;;;10.90;99.90;;;;;;6038387;23;19905;-83
2023/03/25 08:43:49;;;;;;;;;;;11.20;99.90;;;;;;6124781;23;19941;-85
2023/03/25 08:46:39;;;;;;;;;;;11.40;99.90;;;;;;6093411;23;19915;-83
2023/03/25 08:49:37;;;;;;;;;;;11.60;99.90;;;;;;6092161;23;19905;-83
2023/03/25 08:52:24;;;;;;;;;;;11.60;99.90;;;;;;6092631;23;19905;-83
2023/03/25 08:54:58;;;;;;;;;;;11.60;99.90;;;;;;6092738;23;19905;-83
2023/03/25 08:57:41;;;;;;;;;;;11.50;99.90;;;;;;6106479;23;19906;-83
2023/03/25 09:03:34;;;;;;;;;;;11.40;99.90;;;;;;6109007;23;19906;-84
2023/03/25 09:06:05;;;;;;;;;;;11.30;99.90;;;;;;6196011;23;19921;-83
2023/03/25 09:17:59;;;;;;;;;;;11.60;99.90;;;;;;6112947;23;19909;-83
2023/03/25 09:20:28;;;;;;;;;;;12.00;99.90;;;;;;6219135;23;20339;-84
2023/03/25 09:22:54;;;;;;;;;;;12.20;99.90;;;;;;6219712;23;19980;-85
2023/03/25 09:25:22;;;;;;;;;;;12.50;99.90;;;;;;6194752;23;19936;-83
2023/03/25 09:27:56;;;;;;;;;;;12.40;99.90;;;;;;6220134;23;19944;-84
2023/03/25 09:30:27;;;;;;;;;;;12.40;99.90;;;;;;6220359;23;20228;-83
2023/03/25 09:33:05;;;;;;;;;;;;;;;;;;;;;
2023/03/25 09:35:47;;;;;;;;;;;12.70;99.90;;;;;;6093349;23;20302;-83
2023/03/25 09:38:38;;;;;;;;;;;13.00;99.90;;;;;;6194933;23;20297;-84
2023/03/25 09:41:18;;;;;;;;;;;13.70;99.90;;;;;;6219440;22;19984;-85
2023/03/25 09:44:24;;;;;;;;;;;14.20;99.90;;;;;;6093381;23;19976;-85
2023/03/25 09:46:53;;;;;;;;;;;14.80;99.90;;;;;;6124434;23;20123;-85
2023/03/25 09:49:31;;;;;;;;;;;15.70;99.90;;;;;;6201269;23;19906;-86
2023/03/25 09:52:00;;;;;;;;;;;15.30;99.90;;;;;;6219798;22;19910;-85
2023/03/25 09:54:30;;;;;;;;;;;14.80;99.90;;;;;;6219809;23;19967;-85
2023/03/25 09:56:56;;;;;;;;;;;14.20;99.90;;;;;;6220755;23;19905;-85
2023/03/25 09:59:22;;;;;;;;;;;13.50;99.90;;;;;;6215157;23;19905;-82
2023/03/25 10:01:57;;;;;;;;;;;13.20;99.90;;;;;;6216823;22;20239;-81
2023/03/25 10:04:29;;;;;;;;;;;13.10;99.90;;;;;;6092939;23;19906;-82
2023/03/25 10:06:59;;;;;;;;;;;13.10;99.90;;;;;;6220459;23;19933;-83
2023/03/25 10:09:36;;;;;;;;;;;13.10;99.90;;;;;;6218860;23;20377;-84
2023/03/25 10:12:07;;;;;;;;;;;13.30;99.90;;;;;;6219210;22;19905;-83
2023/03/25 10:14:52;;;;;;;;;;;13.50;99.90;;;;;;6092438;23;19916;-84
2023/03/25 10:17:29;;;;;;;;;;;13.30;99.90;;;;;;6094031;23;19910;-81
2023/03/25 10:19:59;;;;;;;;;;;13.20;99.90;;;;;;6219538;23;19905;-81
2023/03/25 10:22:27;;;;;;;;;;;12.80;99.90;;;;;;6192886;23;19906;-82
2023/03/25 10:25:01;;;;;;;;;;;13.00;99.90;;;;;;6218547;23;19993;-82
2023/03/25 10:27:29;;;;;;;;;;;13.10;99.90;;;;;;6094300;23;19909;-83
2023/03/25 10:29:55;;;;;;;;;;;13.10;99.90;;;;;;6219727;23;20293;-81
2023/03/25 10:32:31;;;;;;;;;;;13.00;99.90;;;;;;6092563;23;19905;-81
2023/03/25 10:34:58;;;;;;;;;;;13.80;99.90;;;;;;6219879;23;20326;-81
2023/03/25 10:37:27;;;;;;;;;;;13.70;99.90;;;;;;6220027;23;19905;-83
2023/03/25 10:39:54;;;;;;;;;;;14.70;99.90;;;;;;6219649;23;19992;-82
2023/03/25 10:42:24;;;;;;;;;;;15.30;99.90;;;;;;6092568;23;20008;-81
2023/03/25 10:44:51;;;;;;;;;;;15.50;99.90;;;;;;6093783;23;20390;-84
2023/03/25 10:47:22;;;;;;;;;;;14.90;99.90;;;;;;6220740;23;19909;-84
2023/03/25 10:49:48;;;;;;;;;;;14.60;99.90;;;;;;6094726;23;20304;-84
2023/03/25 10:52:14;;;;;;;;;;;16.00;99.90;;;;;;6219858;22;19941;-85
2023/03/25 10:54:42;;;;;;;;;;;15.30;99.90;;;;;;6220060;23;19906;-84
2023/03/25 10:57:10;;;;;;;;;;;14.90;99.90;;;;;;6220326;23;20072;-84
2023/03/25 10:59:44;;;;;;;;;;;14.40;99.90;;;;;;6194981;23;20358;-85
2023/03/25 11:02:12;;;;;;;;;;;14.10;99.90;;;;;;6093751;23;19905;-84
2023/03/25 11:04:40;;;;;;;;;;;15.00;99.90;;;;;;6220007;23;19920;-84
2023/03/25 11:07:18;;;;;;;;;;;16.60;99.90;;;;;;6194123;23;19927;-85
2023/03/25 11:09:43;;;;;;;;;;;17.70;99.90;;;;;;6220381;23;19905;-84
2023/03/25 12:23:06;;;;;;;;;;;13.50;99.90;;;;;;6122339;22;19970;-85
2023/03/25 12:44:38;;;;;;;;;;;19.30;93.50;;;;;;6068812;23;19908;-86
2023/03/25 14:45:58;;;;;;;;;;;;;;;;;;;;;
2023/03/25 14:49:01;;;;;;;;;;;14.40;99.90;;;;;;6278405;22;20006;-89
2023/03/25 14:55:05;;;;;;;;;;;15.20;99.90;;;;;;6052735;23;20343;-88
2023/03/25 15:06:24;;;;;;;;;;;14.70;99.90;;;;;;6277511;22;19949;-85
2023/03/25 15:12:20;;;;;;;;;;;13.40;99.90;;;;;;6158752;23;19899;-84
2023/03/25 15:14:50;;;;;;;;;;;12.60;99.90;;;;;;6251602;22;19907;-87
2023/03/25 15:17:35;;;;;;;;;;;11.90;99.90;;;;;;6262995;22;19903;-84
2023/03/25 15:20:08;;;;;;;;;;;11.40;99.90;;;;;;6286891;22;19910;-85
2023/03/25 15:22:34;;;;;;;;;;;10.80;99.90;;;;;;6282367;22;19903;-85
2023/03/25 15:25:00;;;;;;;;;;;10.50;99.90;;;;;;6255488;22;19907;-85
2023/03/25 15:27:28;;;;;;;;;;;10.50;99.90;;;;;;6256141;22;20323;-84
2023/03/25 15:29:57;;;;;;;;;;;10.50;99.90;;;;;;6256628;22;19903;-84
2023/03/25 15:32:22;;;;;;;;;;;10.80;99.90;;;;;;6284483;22;19903;-86
2023/03/25 15:34:48;;;;;;;;;;;11.00;99.90;;;;;;6254292;22;19914;-85
2023/03/25 15:37:25;;;;;;;;;;;11.20;99.90;;;;;;6254857;22;19970;-85
2023/03/25 15:39:56;;;;;;;;;;;11.50;99.90;;;;;;6281948;22;19935;-85
2023/03/25 15:42:25;;;;;;;;;;;11.70;99.90;;;;;;6254075;22;19908;-84
2023/03/25 15:44:50;;;;;;;;;;;12.00;99.90;;;;;;6259517;22;20291;-85
2023/03/25 15:47:35;;;;;;;;;;;12.20;99.90;;;;;;6258168;22;19903;-84
2023/03/25 15:50:09;;;;;;;;;;;12.20;99.90;;;;;;6257454;22;19904;-85
2023/03/25 15:52:54;;;;;;;;;;;12.10;99.90;;;;;;6282767;22;19910;-85
2023/03/25 15:55:22;;;;;;;;;;;12.10;99.90;;;;;;6254615;22;20313;-85
2023/03/25 16:01:21;;;;;;;;;;;12.00;99.90;;;;;;6106109;23;19990;-86
2023/03/25 16:03:51;;;;;;;;;;;11.90;99.90;;;;;;6250220;22;19915;-82
2023/03/25 16:06:18;;;;;;;;;;;11.70;99.90;;;;;;6280626;22;19911;-86
2023/03/25 16:08:46;;;;;;;;;;;11.40;99.90;;;;;;6253010;23;19904;-84
2023/03/25 16:11:21;;;;;;;;;;;11.20;99.90;;;;;;6250003;23;19908;-85
2023/03/25 16:13:59;;;;;;;;;;;11.00;99.90;;;;;;6249649;23;19970;-84
2023/03/25 16:21:34;;;;;;;;;;;11.00;99.90;;;;;;6216686;23;19927;-83
2023/03/25 16:24:05;;;;;;;;;;;10.90;99.90;;;;;;6217395;23;19908;-82
2023/03/25 16:26:48;;;;;;;;;;;10.80;99.90;;;;;;6203464;23;19992;-85
2023/03/25 16:29:16;;;;;;;;;;;10.90;99.90;;;;;;6187870;23;19904;-82
2023/03/25 16:31:50;;;;;;;;;;;10.90;99.90;;;;;;6185992;23;19904;-82
2023/03/25 16:34:15;;;;;;;;;;;10.80;99.90;;;;;;6187049;23;19908;-82
2023/03/25 16:36:46;;;;;;;;;;;10.90;99.90;;;;;;6174742;22;20266;-82
2023/03/25 16:50:57;;;;;;;;;;;11.20;99.90;;;;;;6246523;23;19920;-80
2023/03/25 16:53:23;;;;;;;;;;;11.30;99.90;;;;;;6268363;22;19924;-82
2023/03/25 16:55:55;;;;;;;;;;;11.10;99.90;;;;;;6246785;22;19911;-81
2023/03/25 16:58:21;;;;;;;;;;;10.90;99.90;;;;;;6248929;22;19903;-82
2023/03/25 17:00:52;;;;;;;;;;;10.60;99.90;;;;;;6245523;22;19910;-82
2023/03/25 17:03:36;;;;;;;;;;;10.20;99.90;;;;;;6246221;22;19970;-83
2023/03/25 17:06:11;;;;;;;;;;;9.90;99.90;;;;;;6247400;22;19908;-82
2023/03/25 17:08:37;;;;;;;;;;;9.70;99.90;;;;;;6248432;22;19907;-82
2023/03/25 17:11:06;;;;;;;;;;;9.70;99.90;;;;;;6244421;23;19907;-82
2023/03/25 17:13:53;;;;;;;;;;;9.60;99.90;;;;;;6244532;22;19907;-82
2023/03/25 17:16:20;;;;;;;;;;;9.60;99.90;;;;;;6245319;23;19986;-83
2023/03/25 17:18:46;;;;;;;;;;;9.60;99.90;;;;;;6247248;22;19904;-83
2023/03/25 17:21:19;;;;;;;;;;;9.60;99.90;;;;;;6244721;22;19907;-82
2023/03/25 17:23:45;;;;;;;;;;;9.50;99.90;;;;;;6247420;22;19957;-82
2023/03/25 17:26:12;;;;;;;;;;;9.60;99.90;;;;;;6247174;22;19911;-82
2023/03/25 17:28:40;;;;;;;;;;;9.60;99.90;;;;;;6247404;22;19947;-83
2023/03/25 17:31:26;;;;;;;;;;;9.50;99.90;;;;;;6245487;22;19903;-82
2023/03/25 17:33:57;;;;;;;;;;;9.50;99.90;;;;;;6247006;22;19914;-83
2023/03/25 17:36:22;;;;;;;;;;;9.50;99.90;;;;;;6245568;22;19910;-84
2023/03/25 17:38:51;;;;;;;;;;;9.60;99.90;;;;;;6244363;23;19903;-86
2023/03/25 17:41:17;;;;;;;;;;;9.60;99.90;;;;;;6241492;22;20329;-82
2023/03/25 17:43:44;;;;;;;;;;;9.60;99.90;;;;;;6242852;23;20034;-82
2023/03/25 17:46:10;;;;;;;;;;;9.70;99.90;;;;;;6244813;23;20256;-82
2023/03/25 17:48:36;;;;;;;;;;;9.80;99.90;;;;;;6246350;22;19987;-83
2023/03/25 17:51:01;;;;;;;;;;;9.90;99.90;;;;;;6246103;23;19958;-82
2023/03/25 17:53:27;;;;;;;;;;;10.10;99.90;;;;;;6273938;22;20353;-83
2023/03/25 17:55:52;;;;;;;;;;;10.10;99.90;;;;;;6275255;22;20317;-82
2023/03/25 17:58:19;;;;;;;;;;;10.00;99.90;;;;;;6277062;22;19956;-82
2023/03/25 18:00:46;;;;;;;;;;;9.60;99.90;;;;;;6277054;22;19903;-81
2023/03/25 18:03:13;;;;;;;;;;;9.30;99.90;;;;;;6276534;22;19981;-81
2023/03/25 18:05:39;;;;;;;;;;;9.00;99.90;;;;;;6276693;22;19907;-82
2023/03/25 18:08:05;;;;;;;;;;;8.90;99.90;;;;;;6249608;22;19943;-82
2023/03/25 18:10:31;;;;;;;;;;;8.70;99.90;;;;;;6276784;22;19910;-82
2023/03/25 18:12:56;;;;;;;;;;;8.70;99.90;;;;;;6249510;22;19903;-82
2023/03/25 18:15:22;;;;;;;;;;;8.60;99.90;;;;;;6277729;22;19903;-84
2023/03/25 18:17:49;;;;;;;;;;;8.40;99.90;;;;;;6277287;22;19903;-84
2023/03/25 18:20:15;;;;;;;;;;;8.40;99.90;;;;;;6276827;22;19911;-83
2023/03/25 18:28:18;;;;;;;;;;;8.50;99.90;;;;;;6246515;22;19927;-82
2023/03/25 18:31:01;;;;;;;;;;;8.60;99.90;;;;;;6268532;22;19904;-83
2023/03/25 18:33:59;;;;;;;;;;;8.80;99.90;;;;;;6245648;22;19917;-82
2023/03/25 18:36:27;;;;;;;;;;;8.90;99.90;;;;;;6097785;23;19959;-83
2023/03/25 18:39:07;;;;;;;;;;;8.90;99.90;;;;;;6123562;23;19943;-83
2023/03/25 18:42:13;;;;;;;;;;;;;;;;;;;;;
2023/03/25 18:44:40;;;;;;;;;;;8.60;99.90;;;;;;6177323;23;20345;-83
2023/03/25 18:47:12;;;;;;;;;;;8.60;99.90;;;;;;6218006;23;19912;-84
2023/03/25 18:49:37;;;;;;;;;;;8.40;99.90;;;;;;6218741;23;19904;-83
2023/03/25 18:52:14;;;;;;;;;;;8.40;99.90;;;;;;6218403;23;20333;-83
2023/03/25 18:54:44;;;;;;;;;;;8.40;99.90;;;;;;6221016;23;19904;-83
2023/03/25 18:57:16;;;;;;;;;;;8.40;99.90;;;;;;6219786;23;20210;-83
2023/03/25 18:59:57;;;;;;;;;;;8.40;99.90;;;;;;6218196;23;19991;-84
2023/03/25 19:02:23;;;;;;;;;;;8.40;99.90;;;;;;6218725;23;20130;-84
2023/03/25 19:05:04;;;;;;;;;;;;;;;;;;;;;
2023/03/25 19:07:33;;;;;;;;;;;8.40;99.90;;;;;;6220687;23;19948;-83
2023/03/25 19:09:59;;;;;;;;;;;8.40;99.90;;;;;;6218746;23;19904;-83
2023/03/25 19:12:24;;;;;;;;;;;8.30;99.90;;;;;;6218423;23;19986;-84
2023/03/25 19:14:50;;;;;;;;;;;8.40;99.90;;;;;;6218866;23;19908;-83
2023/03/25 19:17:15;;;;;;;;;;;8.30;99.90;;;;;;6220259;23;19907;-84
2023/03/25 19:19:41;;;;;;;;;;;8.40;99.90;;;;;;6220424;23;19939;-83
2023/03/25 19:22:08;;;;;;;;;;;8.50;99.90;;;;;;6243235;23;19911;-83
2023/03/25 19:24:34;;;;;;;;;;;8.50;99.90;;;;;;6217445;23;20249;-83
2023/03/25 19:26:59;;;;;;;;;;;8.60;99.90;;;;;;6219793;23;20042;-84
2023/03/25 19:29:25;;;;;;;;;;;8.60;99.90;;;;;;6217687;23;20330;-83
2023/03/25 19:31:50;;;;;;;;;;;8.60;99.90;;;;;;6217326;23;19906;-83
2023/03/25 19:34:17;;;;;;;;;;;8.60;99.90;;;;;;6218077;23;19904;-83
2023/03/25 19:36:45;;;;;;;;;;;8.60;99.90;;;;;;6219480;23;19911;-83
2023/03/25 19:39:11;;;;;;;;;;;8.70;99.90;;;;;;6217292;23;19904;-83
2023/03/25 19:41:41;;;;;;;;;;;8.70;99.90;;;;;;6216054;23;19912;-83
2023/03/25 19:44:07;;;;;;;;;;;8.80;99.90;;;;;;6215274;23;19911;-83
2023/03/25 19:46:36;;;;;;;;;;;8.90;99.90;;;;;;6217452;23;20230;-83
2023/03/25 19:49:07;;;;;;;;;;;9.00;99.90;;;;;;6217831;23;20218;-83
2023/03/25 19:51:33;;;;;;;;;;;9.00;99.90;;;;;;6218486;23;19911;-83
2023/03/25 19:53:58;;;;;;;;;;;9.10;99.90;;;;;;6216727;23;20327;-83
2023/03/25 19:56:32;;;;;;;;;;;9.10;99.90;;;;;;6217546;23;19958;-83
2023/03/25 19:58:57;;;;;;;;;;;9.20;99.90;;;;;;6217067;23;19944;-83
2023/03/25 20:01:25;;;;;;;;;;;9.20;99.90;;;;;;6216758;23;19911;-83
2023/03/25 20:03:51;;;;;;;;;;;9.20;99.90;;;;;;6217059;23;19904;-83
2023/03/25 20:06:16;;;;;;;;;;;9.20;99.90;;;;;;6217460;23;20294;-83
2023/03/25 20:08:45;;;;;;;;;;;9.20;99.90;;;;;;6216661;23;19904;-83
2023/03/25 20:11:16;;;;;;;;;;;9.20;99.90;;;;;;6218636;23;19910;-83
2023/03/25 20:13:41;;;;;;;;;;;9.20;99.90;;;;;;6217226;23;19974;-82
2023/03/25 20:16:07;;;;;;;;;;;9.20;99.90;;;;;;6232092;23;19911;-82
2023/03/25 20:18:32;;;;;;;;;;;9.20;99.90;;;;;;6224286;23;19904;-83
2023/03/25 20:21:05;;;;;;;;;;;9.20;99.90;;;;;;6220094;23;19904;-83
2023/03/25 20:23:33;;;;;;;;;;;9.30;99.90;;;;;;6222882;23;19911;-84
2023/03/25 20:26:04;;;;;;;;;;;9.30;99.90;;;;;;6220653;23;19908;-84
2023/03/25 20:28:30;;;;;;;;;;;9.40;99.90;;;;;;6220253;23;20326;-84
2023/03/25 20:31:01;;;;;;;;;;;9.40;99.90;;;;;;6219890;23;19911;-84
2023/03/25 20:33:26;;;;;;;;;;;9.50;99.90;;;;;;6219416;23;19908;-83
2023/03/25 20:35:57;;;;;;;;;;;9.50;99.90;;;;;;6219991;23;19904;-83
2023/03/25 20:38:23;;;;;;;;;;;9.60;99.90;;;;;;6219911;23;19911;-83
2023/03/25 20:40:53;;;;;;;;;;;9.60;99.90;;;;;;6252579;22;20248;-83
2023/03/25 20:43:18;;;;;;;;;;;9.60;99.90;;;;;;6255402;22;19903;-83
2023/03/25 20:45:44;;;;;;;;;;;9.60;99.90;;;;;;6256242;22;19930;-83
2023/03/25 20:48:12;;;;;;;;;;;9.50;99.90;;;;;;6283168;22;19903;-83
2023/03/25 20:50:45;;;;;;;;;;;9.60;99.90;;;;;;6255174;22;19903;-83
2023/03/25 20:53:10;;;;;;;;;;;9.50;99.90;;;;;;6254451;22;19949;-83
2023/03/25 20:55:36;;;;;;;;;;;9.60;99.90;;;;;;6281835;22;19903;-83
2023/03/25 20:58:01;;;;;;;;;;;9.60;99.90;;;;;;6254785;22;19903;-83
2023/03/25 21:00:27;;;;;;;;;;;9.50;99.90;;;;;;6281971;22;19903;-83
2023/03/25 21:02:55;;;;;;;;;;;9.60;99.90;;;;;;6254025;22;19904;-83
2023/03/25 21:05:20;;;;;;;;;;;9.60;99.90;;;;;;6281663;22;19939;-83
2023/03/25 21:07:47;;;;;;;;;;;9.60;99.90;;;;;;6254179;22;20194;-83
2023/03/25 21:10:12;;;;;;;;;;;9.60;99.90;;;;;;6281377;22;20249;-83
2023/03/25 21:12:38;;;;;;;;;;;9.50;99.90;;;;;;6253277;22;19904;-83
2023/03/25 21:15:04;;;;;;;;;;;9.50;99.90;;;;;;6278735;22;19903;-82
2023/03/25 21:17:39;;;;;;;;;;;9.50;99.90;;;;;;6252727;22;19953;-83
2023/03/25 21:20:08;;;;;;;;;;;9.60;99.90;;;;;;6279807;22;19910;-82
2023/03/25 21:22:42;;;;;;;;;;;9.50;99.90;;;;;;6250906;22;20313;-83
2023/03/25 21:25:13;;;;;;;;;;;9.50;99.90;;;;;;6250552;22;19907;-82
2023/03/25 21:27:46;;;;;;;;;;;9.50;99.90;;;;;;6250164;22;19978;-83
2023/03/25 21:30:12;;;;;;;;;;;9.50;99.90;;;;;;6250237;22;19978;-83
2023/03/25 21:32:38;;;;;;;;;;;9.50;99.90;;;;;;6250982;22;19903;-82
2023/03/25 21:35:06;;;;;;;;;;;9.50;99.90;;;;;;6252812;22;19903;-82
2023/03/25 21:37:38;;;;;;;;;;;9.50;99.90;;;;;;6252157;22;19982;-82
2023/03/25 21:40:07;;;;;;;;;;;9.50;99.90;;;;;;6251664;22;19908;-83
2023/03/25 21:42:33;;;;;;;;;;;9.60;99.90;;;;;;6251307;22;20317;-83
2023/03/25 21:44:59;;;;;;;;;;;9.80;99.90;;;;;;6251565;22;19957;-82
2023/03/25 21:47:24;;;;;;;;;;;9.80;99.90;;;;;;6251719;22;19903;-82
2023/03/25 21:49:50;;;;;;;;;;;9.80;99.90;;;;;;6279335;22;19909;-82
2023/03/25 21:52:21;;;;;;;;;;;9.80;99.90;;;;;;6251094;22;20324;-82
2023/03/25 21:54:48;;;;;;;;;;;9.70;99.90;;;;;;6251642;22;20329;-83
2023/03/25 21:57:22;;;;;;;;;;;9.70;99.90;;;;;;6251403;22;19911;-83
2023/03/25 21:59:48;;;;;;;;;;;9.80;99.90;;;;;;6251205;22;20041;-84
2023/03/25 22:02:15;;;;;;;;;;;9.70;99.90;;;;;;6251065;22;19927;-83
2023/03/25 22:04:43;;;;;;;;;;;9.70;99.90;;;;;;6279375;22;19903;-82
2023/03/25 22:07:17;;;;;;;;;;;9.80;99.90;;;;;;6278988;22;19910;-82
2023/03/25 22:09:43;;;;;;;;;;;9.80;99.90;;;;;;6278852;22;19903;-82
2023/03/25 22:12:15;;;;;;;;;;;9.80;99.90;;;;;;6250378;22;19910;-83
2023/03/25 22:14:43;;;;;;;;;;;9.80;99.90;;;;;;6250914;22;19910;-82
2023/03/25 22:17:09;;;;;;;;;;;9.80;99.90;;;;;;6250896;22;19929;-82
2023/03/25 22:19:34;;;;;;;;;;;9.80;99.90;;;;;;6250831;22;19986;-82
2023/03/25 22:22:01;;;;;;;;;;;9.80;99.90;;;;;;6278301;22;19942;-82
2023/03/25 22:24:27;;;;;;;;;;;9.80;99.90;;;;;;6251429;22;19903;-83
2023/03/25 22:26:52;;;;;;;;;;;9.80;99.90;;;;;;6278320;22;19929;-83
2023/03/25 22:29:18;;;;;;;;;;;9.80;99.90;;;;;;6252358;22;20308;-83
2023/03/25 22:31:54;;;;;;;;;;;9.80;99.90;;;;;;6278373;22;19904;-83
2023/03/25 22:34:20;;;;;;;;;;;9.80;99.90;;;;;;6252368;22;19973;-82
2023/03/25 22:36:49;;;;;;;;;;;9.90;99.90;;;;;;6279602;22;19907;-83
2023/03/25 22:39:24;;;;;;;;;;;9.90;99.90;;;;;;6252963;22;19904;-83
2023/03/25 22:42:05;;;;;;;;;;;10.00;99.90;;;;;;6252492;22;19911;-83
2023/03/25 22:44:34;;;;;;;;;;;10.10;99.90;;;;;;6253509;22;19984;-83
2023/03/25 22:47:02;;;;;;;;;;;10.10;99.90;;;;;;6250500;22;19915;-83
2023/03/25 22:49:31;;;;;;;;;;;10.10;99.90;;;;;;6253447;22;19911;-83
2023/03/25 22:52:00;;;;;;;;;;;10.10;99.90;;;;;;6253870;22;19903;-83
2023/03/25 22:54:28;;;;;;;;;;;10.10;99.90;;;;;;6252802;22;19946;-82
2023/03/25 22:56:59;;;;;;;;;;;10.10;99.90;;;;;;6252716;22;20330;-83
2023/03/25 22:59:37;;;;;;;;;;;10.10;99.90;;;;;;6253594;22;19929;-83
2023/03/25 23:02:03;;;;;;;;;;;10.10;99.90;;;;;;6282026;22;19976;-82
2023/03/25 23:04:29;;;;;;;;;;;10.00;99.90;;;;;;6253424;22;20237;-83
2023/03/25 23:06:54;;;;;;;;;;;10.00;99.90;;;;;;6252648;22;20279;-82
2023/03/25 23:09:39;;;;;;;;;;;10.20;99.90;;;;;;6253038;22;20295;-82
2023/03/25 23:12:06;;;;;;;;;;;10.20;99.90;;;;;;6281457;22;19915;-83
2023/03/25 23:14:35;;;;;;;;;;;10.20;99.90;;;;;;6280937;22;19903;-83
2023/03/25 23:17:03;;;;;;;;;;;10.20;99.90;;;;;;6251728;22;20263;-83
2023/03/25 23:19:29;;;;;;;;;;;10.20;99.90;;;;;;6252177;22;19935;-82
2023/03/25 23:21:55;;;;;;;;;;;10.30;99.90;;;;;;6278664;22;19942;-82
2023/03/25 23:24:20;;;;;;;;;;;10.20;99.90;;;;;;6281791;22;20321;-83
2023/03/25 23:26:49;;;;;;;;;;;10.20;99.90;;;;;;6253446;22;19940;-83
2023/03/25 23:29:14;;;;;;;;;;;10.30;99.90;;;;;;6250351;22;19965;-83
2023/03/25 23:31:42;;;;;;;;;;;10.30;99.90;;;;;;6250797;22;19907;-83
2023/03/25 23:34:10;;;;;;;;;;;10.30;99.90;;;;;;6251620;22;19903;-83
2023/03/25 23:36:37;;;;;;;;;;;10.30;99.90;;;;;;6251783;22;19903;-83
2023/03/25 23:39:05;;;;;;;;;;;10.40;99.90;;;;;;6251045;22;19903;-84
2023/03/25 23:41:30;;;;;;;;;;;10.40;99.90;;;;;;6250744;22;19934;-83
2023/03/25 23:43:56;;;;;;;;;;;10.40;99.90;;;;;;6250502;22;20336;-82
2023/03/25 23:46:22;;;;;;;;;;;10.40;99.90;;;;;;6278572;22;19907;-83
2023/03/25 23:48:48;;;;;;;;;;;10.40;99.90;;;;;;6250599;22;19926;-82
2023/03/25 23:51:16;;;;;;;;;;;10.40;99.90;;;;;;6249908;22;19904;-83
2023/03/25 23:53:42;;;;;;;;;;;10.40;99.90;;;;;;6277340;22;19903;-83
2023/03/25 23:56:08;;;;;;;;;;;10.30;99.90;;;;;;6250708;22;19927;-82
2023/03/25 23:58:34;;;;;;;;;;;10.30;99.90;;;;;;6250007;22;19942;-82
